sensor_id;sensor_type;location;lat;lon;timestamp;pressure;altitude;pressure_sealevel;temperature;humidity
44988;BME280;35735;52.226;21.254;2023-07-16T00:03:27;100082.66;;;21.44;98.81
44988;BME280;35735;52.226;21.254;2023-07-16T00:08:28;100089.44;;;21.37;99.09
44988;BME280;35735;52.226;21.254;2023-07-16T00:13:28;100083.25;;;21.32;99.25
44988;BME280;35735;52.226;21.254;2023-07-16T00:18:29;100081.13;;;21.19;99.33
44988;BME280;35735;52.226;21.254;2023-07-16T00:23:29;100071.50;;;21.10;99.74
44988;BME280;35735;52.226;21.254;2023-07-16T00:28:30;100066.69;;;20.97;100.00
44988;BME280;35735;52.226;21.254;2023-07-16T00:33:31;100064.19;;;20.92;100.00
44988;BME280;35735;52.226;21.254;2023-07-16T00:38:31;100062.53;;;20.88;100.00
44988;BME280;35735;52.226;21.254;2023-07-16T00:43:32;100064.00;;;20.76;100.00
44988;BME280;35735;52.226;21.254;2023-07-16T00:48:32;100070.75;;;20.69;100.00
44988;BME280;35735;52.226;21.254;2023-07-16T00:53:33;100069.53;;;20.55;100.00
44988;BME280;35735;52.226;21.254;2023-07-16T00:58:34;100074.47;;;20.47;100.00
44988;BME280;35735;52.226;21.254;2023-07-16T01:03:35;100064.75;;;20.40;100.00
44988;BME280;35735;52.226;21.254;2023-07-16T01:08:47;100068.72;;;20.33;100.00
44988;BME280;35735;52.226;21.254;2023-07-16T01:13:57;100069.16;;;20.24;100.00
44988;BME280;35735;52.226;21.254;2023-07-16T01:18:59;100059.53;;;20.15;100.00
44988;BME280;35735;52.226;21.254;2023-07-16T01:24:23;100048.91;;;20.07;100.00
44988;BME280;35735;52.226;21.254;2023-07-16T01:29:36;100043.69;;;20.01;100.00
44988;BME280;35735;52.226;21.254;2023-07-16T01:34:39;100037.16;;;19.85;100.00
44988;BME280;35735;52.226;21.254;2023-07-16T01:39:40;100030.81;;;19.83;100.00
44988;BME280;35735;52.226;21.254;2023-07-16T01:44:41;100032.81;;;19.79;100.00
44988;BME280;35735;52.226;21.254;2023-07-16T01:49:41;100035.56;;;19.57;100.00
44988;BME280;35735;52.226;21.254;2023-07-16T01:54:42;100033.22;;;19.48;100.00
44988;BME280;35735;52.226;21.254;2023-07-16T01:59:43;100033.50;;;19.41;100.00
44988;BME280;35735;52.226;21.254;2023-07-16T02:04:43;100028.16;;;19.38;100.00
44988;BME280;35735;52.226;21.254;2023-07-16T02:09:44;100034.00;;;19.29;100.00
44988;BME280;35735;52.226;21.254;2023-07-16T02:14:44;100025.28;;;19.19;100.00
44988;BME280;35735;52.226;21.254;2023-07-16T02:19:45;100019.97;;;19.16;100.00
44988;BME280;35735;52.226;21.254;2023-07-16T02:24:45;100017.50;;;19.10;100.00
44988;BME280;35735;52.226;21.254;2023-07-16T02:29:46;100012.84;;;19.12;100.00
44988;BME280;35735;52.226;21.254;2023-07-16T02:34:46;100023.72;;;19.14;100.00
44988;BME280;35735;52.226;21.254;2023-07-16T02:39:47;100016.44;;;19.13;100.00
44988;BME280;35735;52.226;21.254;2023-07-16T02:44:48;100011.13;;;19.10;100.00
44988;BME280;35735;52.226;21.254;2023-07-16T02:49:51;100013.66;;;19.14;100.00
44988;BME280;35735;52.226;21.254;2023-07-16T02:54:51;100007.94;;;19.20;100.00
44988;BME280;35735;52.226;21.254;2023-07-16T02:59:52;100016.97;;;19.22;100.00
44988;BME280;35735;52.226;21.254;2023-07-16T03:04:53;100018.56;;;19.28;100.00
44988;BME280;35735;52.226;21.254;2023-07-16T03:09:53;100014.53;;;19.37;100.00
44988;BME280;35735;52.226;21.254;2023-07-16T03:14:54;100012.56;;;19.40;100.00
44988;BME280;35735;52.226;21.254;2023-07-16T03:19:54;100004.03;;;19.48;100.00
44988;BME280;35735;52.226;21.254;2023-07-16T03:24:55;100010.94;;;19.57;100.00
44988;BME280;35735;52.226;21.254;2023-07-16T03:29:55;100012.31;;;19.67;100.00
44988;BME280;35735;52.226;21.254;2023-07-16T03:34:56;100011.03;;;19.76;100.00
44988;BME280;35735;52.226;21.254;2023-07-16T03:40:01;100008.38;;;19.95;100.00
44988;BME280;35735;52.226;21.254;2023-07-16T03:45:13;100009.16;;;20.17;100.00
44988;BME280;35735;52.226;21.254;2023-07-16T03:50:13;100032.53;;;20.45;100.00
44988;BME280;35735;52.226;21.254;2023-07-16T03:55:14;100032.88;;;20.77;100.00
44988;BME280;35735;52.226;21.254;2023-07-16T04:00:14;100035.97;;;21.07;100.00
44988;BME280;35735;52.226;21.254;2023-07-16T04:05:15;100046.16;;;21.42;100.00
44988;BME280;35735;52.226;21.254;2023-07-16T04:10:15;100050.66;;;21.79;100.00
44988;BME280;35735;52.226;21.254;2023-07-16T04:15:16;100049.59;;;22.17;100.00
44988;BME280;35735;52.226;21.254;2023-07-16T04:20:16;100040.31;;;22.53;100.00
44988;BME280;35735;52.226;21.254;2023-07-16T04:25:17;100040.28;;;22.86;100.00
44988;BME280;35735;52.226;21.254;2023-07-16T04:30:18;100037.28;;;23.23;100.00
44988;BME280;35735;52.226;21.254;2023-07-16T04:35:18;100033.87;;;23.49;100.00
44988;BME280;35735;52.226;21.254;2023-07-16T04:40:19;100037.59;;;23.79;100.00
44988;BME280;35735;52.226;21.254;2023-07-16T04:45:19;100045.91;;;24.09;100.00
44988;BME280;35735;52.226;21.254;2023-07-16T04:50:20;100041.09;;;24.41;100.00
44988;BME280;35735;52.226;21.254;2023-07-16T04:55:20;100045.97;;;24.81;99.68
44988;BME280;35735;52.226;21.254;2023-07-16T05:00:21;100055.06;;;25.10;98.61
44988;BME280;35735;52.226;21.254;2023-07-16T05:05:21;100057.59;;;25.42;97.76
44988;BME280;35735;52.226;21.254;2023-07-16T05:10:22;100059.91;;;25.76;97.14
44988;BME280;35735;52.226;21.254;2023-07-16T05:15:23;100052.41;;;26.05;96.02
44988;BME280;35735;52.226;21.254;2023-07-16T05:20:23;100053.06;;;26.34;95.56
44988;BME280;35735;52.226;21.254;2023-07-16T05:25:24;100058.94;;;26.55;94.42
44988;BME280;35735;52.226;21.254;2023-07-16T05:30:25;100061.59;;;26.83;94.27
44988;BME280;35735;52.226;21.254;2023-07-16T05:35:25;100052.72;;;27.03;93.23
44988;BME280;35735;52.226;21.254;2023-07-16T05:40:26;100066.19;;;27.33;92.40
44988;BME280;35735;52.226;21.254;2023-07-16T05:45:26;100061.91;;;27.65;92.01
44988;BME280;35735;52.226;21.254;2023-07-16T05:50:27;100055.53;;;28.00;91.21
44988;BME280;35735;52.226;21.254;2023-07-16T05:55:27;100046.53;;;28.20;90.03
44988;BME280;35735;52.226;21.254;2023-07-16T06:00:28;100047.31;;;28.45;89.86
44988;BME280;35735;52.226;21.254;2023-07-16T06:05:28;100052.03;;;28.78;89.24
44988;BME280;35735;52.226;21.254;2023-07-16T06:10:29;100052.69;;;28.93;87.90
44988;BME280;35735;52.226;21.254;2023-07-16T06:15:30;100049.66;;;29.08;87.89
44988;BME280;35735;52.226;21.254;2023-07-16T06:20:30;100052.00;;;29.46;87.31
44988;BME280;35735;52.226;21.254;2023-07-16T06:25:31;100062.38;;;29.77;85.75
44988;BME280;35735;52.226;21.254;2023-07-16T06:30:31;100063.28;;;30.09;85.47
44988;BME280;35735;52.226;21.254;2023-07-16T06:35:32;100057.06;;;30.38;84.05
44988;BME280;35735;52.226;21.254;2023-07-16T06:40:33;100056.78;;;30.62;82.91
44988;BME280;35735;52.226;21.254;2023-07-16T06:45:33;100060.09;;;30.87;82.40
44988;BME280;35735;52.226;21.254;2023-07-16T06:50:34;100064.34;;;31.02;80.66
44988;BME280;35735;52.226;21.254;2023-07-16T06:55:35;100059.56;;;31.24;80.40
44988;BME280;35735;52.226;21.254;2023-07-16T07:00:35;100065.38;;;31.62;79.67
44988;BME280;35735;52.226;21.254;2023-07-16T07:05:36;100056.72;;;31.84;78.28
44988;BME280;35735;52.226;21.254;2023-07-16T07:10:36;100065.72;;;32.07;78.11
44988;BME280;35735;52.226;21.254;2023-07-16T07:15:37;100056.31;;;32.28;76.77
44988;BME280;35735;52.226;21.254;2023-07-16T07:20:39;100064.50;;;32.49;75.68
44988;BME280;35735;52.226;21.254;2023-07-16T07:25:40;100073.88;;;32.58;75.59
44988;BME280;35735;52.226;21.254;2023-07-16T07:30:40;100066.03;;;32.81;75.49
44988;BME280;35735;52.226;21.254;2023-07-16T07:35:41;100067.87;;;33.10;75.07
44988;BME280;35735;52.226;21.254;2023-07-16T07:40:44;100067.09;;;33.45;74.26
44988;BME280;35735;52.226;21.254;2023-07-16T07:45:45;100067.31;;;33.79;72.99
44988;BME280;35735;52.226;21.254;2023-07-16T07:50:46;100088.78;;;34.07;72.54
44988;BME280;35735;52.226;21.254;2023-07-16T07:55:47;100084.37;;;34.22;70.50
44988;BME280;35735;52.226;21.254;2023-07-16T08:00:47;100093.81;;;34.39;70.06
44988;BME280;35735;52.226;21.254;2023-07-16T08:05:49;100083.06;;;34.52;69.98
44988;BME280;35735;52.226;21.254;2023-07-16T08:10:49;100074.31;;;34.74;69.13
44988;BME280;35735;52.226;21.254;2023-07-16T08:15:50;100068.13;;;34.96;68.67
44988;BME280;35735;52.226;21.254;2023-07-16T08:20:50;100057.69;;;35.15;67.14
44988;BME280;35735;52.226;21.254;2023-07-16T08:25:51;100061.09;;;35.27;66.17
44988;BME280;35735;52.226;21.254;2023-07-16T08:30:51;100056.94;;;35.39;65.73
44988;BME280;35735;52.226;21.254;2023-07-16T08:35:52;100058.94;;;35.63;65.91
44988;BME280;35735;52.226;21.254;2023-07-16T08:40:52;100048.31;;;35.83;64.80
44988;BME280;35735;52.226;21.254;2023-07-16T08:45:53;100039.38;;;36.04;63.25
44988;BME280;35735;52.226;21.254;2023-07-16T08:50:55;100040.59;;;36.18;62.81
44988;BME280;35735;52.226;21.254;2023-07-16T08:56:00;100043.25;;;36.36;63.21
44988;BME280;35735;52.226;21.254;2023-07-16T09:01:03;100032.38;;;36.49;61.27
44988;BME280;35735;52.226;21.254;2023-07-16T09:06:04;100042.72;;;36.57;60.46
44988;BME280;35735;52.226;21.254;2023-07-16T09:11:04;100036.03;;;36.75;60.03
44988;BME280;35735;52.226;21.254;2023-07-16T09:16:05;100045.97;;;36.94;58.94
44988;BME280;35735;52.226;21.254;2023-07-16T09:21:06;100036.97;;;37.06;59.49
44988;BME280;35735;52.226;21.254;2023-07-16T09:26:07;100035.53;;;37.11;58.56
44988;BME280;35735;52.226;21.254;2023-07-16T09:31:07;100028.00;;;37.19;57.22
44988;BME280;35735;52.226;21.254;2023-07-16T09:36:08;100040.63;;;37.23;57.61
44988;BME280;35735;52.226;21.254;2023-07-16T09:41:09;100027.37;;;37.32;56.70
44988;BME280;35735;52.226;21.254;2023-07-16T09:46:09;100031.28;;;37.31;55.54
44988;BME280;35735;52.226;21.254;2023-07-16T09:51:11;100025.28;;;37.34;54.86
44988;BME280;35735;52.226;21.254;2023-07-16T09:56:13;100029.69;;;37.29;55.04
44988;BME280;35735;52.226;21.254;2023-07-16T10:01:14;100027.78;;;37.52;54.28
44988;BME280;35735;52.226;21.254;2023-07-16T10:06:14;100012.31;;;37.56;53.90
44988;BME280;35735;52.226;21.254;2023-07-16T10:11:16;100012.66;;;37.53;53.72
44988;BME280;35735;52.226;21.254;2023-07-16T10:16:21;100012.09;;;37.66;52.86
44988;BME280;35735;52.226;21.254;2023-07-16T10:21:25;100017.47;;;37.44;52.67
44988;BME280;35735;52.226;21.254;2023-07-16T10:26:27;100001.00;;;37.33;53.49
44988;BME280;35735;52.226;21.254;2023-07-16T10:31:28;100018.28;;;37.53;53.01
44988;BME280;35735;52.226;21.254;2023-07-16T10:36:28;100006.22;;;37.44;52.24
44988;BME280;35735;52.226;21.254;2023-07-16T10:41:30;100000.22;;;37.48;51.06
44988;BME280;35735;52.226;21.254;2023-07-16T10:46:31;99998.16;;;37.41;51.31
44988;BME280;35735;52.226;21.254;2023-07-16T10:51:32;100000.31;;;37.31;51.78
44988;BME280;35735;52.226;21.254;2023-07-16T10:56:36;99986.78;;;37.26;52.03
44988;BME280;35735;52.226;21.254;2023-07-16T11:01:36;99983.50;;;37.15;51.12
44988;BME280;35735;52.226;21.254;2023-07-16T11:06:37;99985.00;;;36.94;51.79
44988;BME280;35735;52.226;21.254;2023-07-16T11:11:37;99981.44;;;37.00;52.46
44988;BME280;35735;52.226;21.254;2023-07-16T11:16:38;99990.03;;;37.07;52.72
44988;BME280;35735;52.226;21.254;2023-07-16T11:21:39;99975.31;;;36.97;52.52
44988;BME280;35735;52.226;21.254;2023-07-16T11:26:40;99986.25;;;36.83;52.67
44988;BME280;35735;52.226;21.254;2023-07-16T11:31:51;99982.44;;;36.76;53.35
44988;BME280;35735;52.226;21.254;2023-07-16T11:36:52;99983.97;;;36.87;54.64
44988;BME280;35735;52.226;21.254;2023-07-16T11:41:54;99976.19;;;36.97;54.29
44988;BME280;35735;52.226;21.254;2023-07-16T11:46:58;99978.84;;;36.90;55.14
44988;BME280;35735;52.226;21.254;2023-07-16T11:51:59;99982.94;;;36.80;56.02
44988;BME280;35735;52.226;21.254;2023-07-16T11:56:59;99985.91;;;36.86;56.81
44988;BME280;35735;52.226;21.254;2023-07-16T12:02:00;99984.34;;;36.84;56.74
44988;BME280;35735;52.226;21.254;2023-07-16T12:07:01;99993.69;;;36.76;57.64
44988;BME280;35735;52.226;21.254;2023-07-16T12:12:02;99990.69;;;36.61;57.68
44988;BME280;35735;52.226;21.254;2023-07-16T12:17:02;99984.19;;;36.69;57.77
44988;BME280;35735;52.226;21.254;2023-07-16T12:22:03;99987.00;;;36.77;57.79
44988;BME280;35735;52.226;21.254;2023-07-16T12:27:04;99970.66;;;36.64;57.01
44988;BME280;35735;52.226;21.254;2023-07-16T12:32:05;99982.50;;;36.35;57.47
44988;BME280;35735;52.226;21.254;2023-07-16T12:37:06;99978.31;;;36.23;58.38
44988;BME280;35735;52.226;21.254;2023-07-16T12:42:07;99969.03;;;36.22;58.71
44988;BME280;35735;52.226;21.254;2023-07-16T12:47:07;99961.97;;;36.26;58.77
44988;BME280;35735;52.226;21.254;2023-07-16T12:52:08;99974.97;;;36.27;58.81
44988;BME280;35735;52.226;21.254;2023-07-16T12:57:08;99969.69;;;36.16;58.35
44988;BME280;35735;52.226;21.254;2023-07-16T13:02:09;99980.41;;;35.96;59.22
44988;BME280;35735;52.226;21.254;2023-07-16T13:07:09;99972.84;;;35.88;59.58
44988;BME280;35735;52.226;21.254;2023-07-16T13:12:10;99987.59;;;35.74;59.43
44988;BME280;35735;52.226;21.254;2023-07-16T13:17:10;99988.25;;;35.59;59.76
44988;BME280;35735;52.226;21.254;2023-07-16T13:22:12;99988.41;;;35.58;59.69
44988;BME280;35735;52.226;21.254;2023-07-16T13:27:21;99980.88;;;35.58;59.44
44988;BME280;35735;52.226;21.254;2023-07-16T13:32:22;99980.16;;;35.56;59.26
44988;BME280;35735;52.226;21.254;2023-07-16T13:37:23;99987.88;;;35.54;58.94
44988;BME280;35735;52.226;21.254;2023-07-16T13:42:24;99985.75;;;35.40;58.63
44988;BME280;35735;52.226;21.254;2023-07-16T13:47:24;99984.00;;;35.31;58.42
44988;BME280;35735;52.226;21.254;2023-07-16T13:52:25;99981.47;;;35.19;58.44
44988;BME280;35735;52.226;21.254;2023-07-16T13:57:26;99988.63;;;35.05;58.55
44988;BME280;35735;52.226;21.254;2023-07-16T14:02:27;99997.12;;;34.87;57.99
44988;BME280;35735;52.226;21.254;2023-07-16T14:07:27;99995.06;;;34.71;57.28
44988;BME280;35735;52.226;21.254;2023-07-16T14:12:28;100002.50;;;34.55;56.45
44988;BME280;35735;52.226;21.254;2023-07-16T14:17:28;99991.94;;;34.40;57.01
44988;BME280;35735;52.226;21.254;2023-07-16T14:22:29;99993.78;;;34.31;56.92
44988;BME280;35735;52.226;21.254;2023-07-16T14:27:30;100007.91;;;34.22;57.09
44988;BME280;35735;52.226;21.254;2023-07-16T14:32:30;100010.78;;;34.12;57.34
44988;BME280;35735;52.226;21.254;2023-07-16T14:37:31;100027.34;;;34.05;56.73
44988;BME280;35735;52.226;21.254;2023-07-16T14:42:31;100024.38;;;33.89;56.58
44988;BME280;35735;52.226;21.254;2023-07-16T14:47:32;100020.56;;;33.72;57.42
44988;BME280;35735;52.226;21.254;2023-07-16T14:52:32;100020.97;;;33.49;58.48
44988;BME280;35735;52.226;21.254;2023-07-16T14:57:33;100021.19;;;33.38;58.31
44988;BME280;35735;52.226;21.254;2023-07-16T15:02:33;100022.47;;;33.26;58.65
44988;BME280;35735;52.226;21.254;2023-07-16T15:07:35;100026.34;;;33.15;59.24
44988;BME280;35735;52.226;21.254;2023-07-16T15:12:35;100015.66;;;33.00;59.37
44988;BME280;35735;52.226;21.254;2023-07-16T15:17:36;100018.34;;;32.92;59.27
44988;BME280;35735;52.226;21.254;2023-07-16T15:22:37;100017.09;;;32.77;59.51
44988;BME280;35735;52.226;21.254;2023-07-16T15:27:37;100022.16;;;32.63;60.54
44988;BME280;35735;52.226;21.254;2023-07-16T15:32:38;100017.13;;;32.57;60.83
44988;BME280;35735;52.226;21.254;2023-07-16T15:37:38;100014.50;;;32.46;61.36
44988;BME280;35735;52.226;21.254;2023-07-16T15:42:39;100018.97;;;32.39;61.72
44988;BME280;35735;52.226;21.254;2023-07-16T15:47:40;100028.53;;;32.26;61.59
44988;BME280;35735;52.226;21.254;2023-07-16T15:52:40;100021.94;;;32.18;62.19
44988;BME280;35735;52.226;21.254;2023-07-16T15:57:41;100033.84;;;32.10;62.32
44988;BME280;35735;52.226;21.254;2023-07-16T16:02:44;100034.41;;;32.04;61.97
44988;BME280;35735;52.226;21.254;2023-07-16T16:07:49;100037.66;;;31.89;62.27
44988;BME280;35735;52.226;21.254;2023-07-16T16:13:25;100047.34;;;31.85;62.93
44988;BME280;35735;52.226;21.254;2023-07-16T16:18:25;100051.75;;;31.78;63.23
44988;BME280;35735;52.226;21.254;2023-07-16T16:23:27;100049.84;;;31.79;63.37
44988;BME280;35735;52.226;21.254;2023-07-16T16:28:27;100060.41;;;31.65;63.53
44988;BME280;35735;52.226;21.254;2023-07-16T16:33:28;100065.22;;;31.53;64.04
44988;BME280;35735;52.226;21.254;2023-07-16T16:38:28;100060.03;;;31.49;64.23
44988;BME280;35735;52.226;21.254;2023-07-16T16:43:29;100063.56;;;31.41;64.63
44988;BME280;35735;52.226;21.254;2023-07-16T16:48:29;100061.78;;;31.40;65.12
44988;BME280;35735;52.226;21.254;2023-07-16T16:53:30;100062.66;;;31.31;65.09
44988;BME280;35735;52.226;21.254;2023-07-16T16:58:31;100060.31;;;31.26;65.41
44988;BME280;35735;52.226;21.254;2023-07-16T17:03:31;100063.78;;;31.18;65.18
44988;BME280;35735;52.226;21.254;2023-07-16T17:08:32;100068.19;;;31.11;65.17
44988;BME280;35735;52.226;21.254;2023-07-16T17:13:32;100066.66;;;30.97;65.17
44988;BME280;35735;52.226;21.254;2023-07-16T17:18:33;100068.59;;;30.85;65.87
44988;BME280;35735;52.226;21.254;2023-07-16T17:23:33;100076.62;;;30.79;66.37
44988;BME280;35735;52.226;21.254;2023-07-16T17:28:34;100077.81;;;30.76;67.30
44988;BME280;35735;52.226;21.254;2023-07-16T17:33:35;100080.87;;;30.73;67.21
44988;BME280;35735;52.226;21.254;2023-07-16T17:38:35;100076.62;;;30.69;67.84
44988;BME280;35735;52.226;21.254;2023-07-16T17:43:36;100083.72;;;30.62;67.81
44988;BME280;35735;52.226;21.254;2023-07-16T17:48:36;100080.22;;;30.60;68.18
44988;BME280;35735;52.226;21.254;2023-07-16T17:53:37;100078.72;;;30.56;68.79
44988;BME280;35735;52.226;21.254;2023-07-16T17:58:37;100086.31;;;30.54;68.95
44988;BME280;35735;52.226;21.254;2023-07-16T18:03:38;100081.19;;;30.49;69.35
44988;BME280;35735;52.226;21.254;2023-07-16T18:08:38;100089.06;;;30.44;70.00
44988;BME280;35735;52.226;21.254;2023-07-16T18:13:39;100093.41;;;30.37;70.41
44988;BME280;35735;52.226;21.254;2023-07-16T18:18:40;100092.75;;;30.33;70.31
44988;BME280;35735;52.226;21.254;2023-07-16T18:23:40;100099.62;;;30.29;70.97
44988;BME280;35735;52.226;21.254;2023-07-16T18:28:41;100098.37;;;30.22;71.29
44988;BME280;35735;52.226;21.254;2023-07-16T18:33:41;100117.63;;;30.14;71.61
44988;BME280;35735;52.226;21.254;2023-07-16T18:38:42;100106.16;;;30.07;71.69
44988;BME280;35735;52.226;21.254;2023-07-16T18:43:42;100105.94;;;29.99;72.39
44988;BME280;35735;52.226;21.254;2023-07-16T18:48:43;100106.13;;;29.86;72.60
44988;BME280;35735;52.226;21.254;2023-07-16T18:53:44;100131.28;;;29.73;73.55
44988;BME280;35735;52.226;21.254;2023-07-16T18:58:44;100122.59;;;29.55;74.99
44988;BME280;35735;52.226;21.254;2023-07-16T19:03:45;100133.53;;;29.35;75.41
44988;BME280;35735;52.226;21.254;2023-07-16T19:08:45;100133.03;;;29.19;75.54
44988;BME280;35735;52.226;21.254;2023-07-16T19:13:46;100143.59;;;29.02;75.91
44988;BME280;35735;52.226;21.254;2023-07-16T19:18:47;100142.59;;;28.92;76.12
44988;BME280;35735;52.226;21.254;2023-07-16T19:23:47;100162.87;;;28.81;76.48
44988;BME280;35735;52.226;21.254;2023-07-16T19:28:48;100172.34;;;28.68;76.59
44988;BME280;35735;52.226;21.254;2023-07-16T19:33:48;100166.75;;;28.56;77.18
44988;BME280;35735;52.226;21.254;2023-07-16T19:38:49;100163.13;;;28.43;77.28
44988;BME280;35735;52.226;21.254;2023-07-16T19:43:49;100165.63;;;28.35;77.57
44988;BME280;35735;52.226;21.254;2023-07-16T19:48:50;100179.50;;;28.23;78.02
44988;BME280;35735;52.226;21.254;2023-07-16T19:53:51;100173.13;;;28.10;78.61
44988;BME280;35735;52.226;21.254;2023-07-16T19:58:51;100174.28;;;27.95;79.21
44988;BME280;35735;52.226;21.254;2023-07-16T20:03:52;100178.97;;;27.81;80.35
44988;BME280;35735;52.226;21.254;2023-07-16T20:08:52;100173.59;;;27.67;80.88
44988;BME280;35735;52.226;21.254;2023-07-16T20:13:53;100169.56;;;27.47;81.28
44988;BME280;35735;52.226;21.254;2023-07-16T20:18:53;100172.44;;;27.32;81.98
44988;BME280;35735;52.226;21.254;2023-07-16T20:23:54;100173.44;;;27.18;83.02
44988;BME280;35735;52.226;21.254;2023-07-16T20:28:54;100178.44;;;27.01;83.58
44988;BME280;35735;52.226;21.254;2023-07-16T20:33:55;100179.34;;;26.88;84.30
44988;BME280;35735;52.226;21.254;2023-07-16T20:38:55;100181.78;;;26.80;84.55
44988;BME280;35735;52.226;21.254;2023-07-16T20:43:56;100199.91;;;26.71;85.27
44988;BME280;35735;52.226;21.254;2023-07-16T20:48:56;100199.97;;;26.57;86.41
44988;BME280;35735;52.226;21.254;2023-07-16T20:53:57;100199.84;;;26.46;87.29
44988;BME280;35735;52.226;21.254;2023-07-16T20:58:58;100205.59;;;26.42;87.40
44988;BME280;35735;52.226;21.254;2023-07-16T21:03:58;100198.50;;;26.38;88.15
44988;BME280;35735;52.226;21.254;2023-07-16T21:08:59;100196.94;;;26.34;88.32
44988;BME280;35735;52.226;21.254;2023-07-16T21:13:59;100198.25;;;26.29;88.83
44988;BME280;35735;52.226;21.254;2023-07-16T21:19:00;100205.31;;;26.20;89.64
44988;BME280;35735;52.226;21.254;2023-07-16T21:24:00;100206.72;;;26.13;90.08
44988;BME280;35735;52.226;21.254;2023-07-16T21:29:01;100211.78;;;26.06;90.47
44988;BME280;35735;52.226;21.254;2023-07-16T21:34:01;100215.44;;;26.06;90.65
44988;BME280;35735;52.226;21.254;2023-07-16T21:39:02;100214.78;;;26.03;90.71
44988;BME280;35735;52.226;21.254;2023-07-16T21:44:02;100217.63;;;26.01;90.77
44988;BME280;35735;52.226;21.254;2023-07-16T21:49:03;100220.00;;;25.93;91.17
44988;BME280;35735;52.226;21.254;2023-07-16T21:54:04;100208.66;;;25.83;91.71
44988;BME280;35735;52.226;21.254;2023-07-16T21:59:04;100212.94;;;25.75;92.51
44988;BME280;35735;52.226;21.254;2023-07-16T22:04:05;100224.00;;;25.60;93.32
44988;BME280;35735;52.226;21.254;2023-07-16T22:09:05;100230.34;;;25.48;94.02
44988;BME280;35735;52.226;21.254;2023-07-16T22:14:06;100236.28;;;25.42;94.20
44988;BME280;35735;52.226;21.254;2023-07-16T22:19:07;100236.16;;;25.29;94.58
44988;BME280;35735;52.226;21.254;2023-07-16T22:24:07;100237.22;;;25.12;95.10
44988;BME280;35735;52.226;21.254;2023-07-16T22:29:08;100233.75;;;24.94;95.32
44988;BME280;35735;52.226;21.254;2023-07-16T22:34:09;100227.31;;;24.79;95.61
44988;BME280;35735;52.226;21.254;2023-07-16T22:39:09;100248.19;;;24.69;95.74
44988;BME280;35735;52.226;21.254;2023-07-16T22:44:10;100234.34;;;24.54;95.98
44988;BME280;35735;52.226;21.254;2023-07-16T22:49:10;100249.88;;;24.41;96.26
44988;BME280;35735;52.226;21.254;2023-07-16T22:54:11;100256.47;;;24.22;96.72
44988;BME280;35735;52.226;21.254;2023-07-16T22:59:12;100242.44;;;24.11;97.13
44988;BME280;35735;52.226;21.254;2023-07-16T23:04:12;100245.81;;;24.00;97.48
44988;BME280;35735;52.226;21.254;2023-07-16T23:09:13;100253.38;;;23.81;98.03
44988;BME280;35735;52.226;21.254;2023-07-16T23:14:13;100252.38;;;23.66;98.51
44988;BME280;35735;52.226;21.254;2023-07-16T23:19:14;100246.75;;;23.52;99.00
44988;BME280;35735;52.226;21.254;2023-07-16T23:24:14;100244.72;;;23.39;99.35
44988;BME280;35735;52.226;21.254;2023-07-16T23:29:15;100265.56;;;23.27;99.86
44988;BME280;35735;52.226;21.254;2023-07-16T23:34:15;100261.34;;;23.20;100.00
44988;BME280;35735;52.226;21.254;2023-07-16T23:39:16;100257.06;;;23.15;100.00
44988;BME280;35735;52.226;21.254;2023-07-16T23:44:17;100267.44;;;23.09;100.00
44988;BME280;35735;52.226;21.254;2023-07-16T23:49:17;100266.78;;;23.04;100.00
44988;BME280;35735;52.226;21.254;2023-07-16T23:54:18;100263.00;;;22.89;100.00
44988;BME280;35735;52.226;21.254;2023-07-16T23:59:19;100269.16;;;22.77;100.00
